EDDCEDDE

Guest
Details From EDDC - Dresden
To EDDE - Erfurt
Flight Number -
Tags generated
Created
Modified
Stats Distance 106 nm / 197 km
Max Altitude 5,400 ft / 1,646 m
Waypoints 3
Social Downloads 0
Likes 0
Share VATSIM

Download

Looking for another format? Having issues loading an existing format? Contact us
Advertisement - Login to hide

Notes

Basic altitude profile: - Ascent Rate: 2500ft/min - Ascent Speed: 230kts - Cruise Altitude: 15000ft - Cruise Speed: 250kts - Descent Rate: 1500ft/min - Descent Speed: 220kts Options: - Use NATs: yes - Use PACOTS: no - Use low airways: no - Use high airways: yes

Route

EDDC RIVSA EDDE

ID Type Via Altitude Latitude Longitude Leg Dist Tot Dist Heading (true) Name
O EDDC APT - 0 ft / 0 m 51.13437˚ 13.76806˚ - 0 nm - Dresden
RIVSA FIX - 5,400 ft / 1,646 m 51.10861˚ 13.36667˚ 15 nm 15 nm 264° / 264° -
O EDDE APT - 0 ft / 0 m 50.97981˚ 10.95810˚ 91 nm 106 nm 266° / 264° Erfurt

Altitude Profile

Advertisement - Login to hide

EDDC

Details ICAO EDDC (DRS)
Name Dresden
Region Germany - Civil
Timezone Europe/Berlin (UTC+1.0)
Stats Elevation 752 ft / 229 m (AMSL)
Location 51.134366° 13.768065°
Runways 1
Magnetic Variation 3.800° E

METAR

EDDC 171020Z 27007KT 220V300 0300 R22/0900VP2000D +SN OVC002 M00/M00 Q1016 R04/590193 TEMPO BKN001

Decode

TAF

TAF AMD EDDC 170956Z 1709/1806 27009KT 8000 SCT010 BKN025 TEMPO 1709/1718 3500 -SHSNRA BKN008TCU TEMPO 1709/1711 0700 +SHSN BKN001CB BECMG 1720/1722 23004KT BECMG 1801/1803 17005KT

Decode

Departure Runways

ID Width Length Bearing (true) Bearing (mag) Surface Threshold Offset Overrun Length
04 197 ft / 60 m 9,348 ft / 2,849 m 40.74° 36.94° Concrete 0 ft / 0 m 0 ft / 0 m
22 197 ft / 60 m 9,348 ft / 2,849 m 220.76° 216.96° Concrete 984 ft / 300 m 0 ft / 0 m

EDDE

Details ICAO EDDE (ERF)
Name Erfurt
Region Germany - Civil
Timezone Europe/Berlin (UTC+1.0)
Stats Elevation 1,035 ft / 315 m (AMSL)
Location 50.979808° 10.958105°
Runways 1
Magnetic Variation 3.026° E

METAR

EDDE 171020Z 28011KT 9999 FEW008 SCT015 BKN040 01/00 Q1019 NOSIG

Decode

TAF

TAF TAF EDDE 170500Z 1706/1806 27010KT 9999 BKN035 PROB40 TEMPO 1706/1717 3000 -SHSN BKN010CB BKN020

Decode

Destination Runways

ID Width Length Bearing (true) Bearing (mag) Surface Threshold Offset Overrun Length
10 164 ft / 50 m 8,523 ft / 2,598 m 98.24° 95.21° Asphalt 0 ft / 0 m 0 ft / 0 m
28 164 ft / 50 m 8,523 ft / 2,598 m 278.27° 275.24° Asphalt 656 ft / 200 m 0 ft / 0 m

Approach Navaids

Runway Type Ident Frequency Range Bearing (true) Bearing (mag) Slope Elevation
10 Localiser IERE 108.30 MHz 18 nm / 33 km 97.72° 94.69° - 1,016 ft / 310 m (AMSL)
10 Glidescope IERE 108.30 MHz 10 nm / 19 km 98.25° 95.23° 3.00° 1,035 ft / 315 m (AMSL)
28 Localiser IERW 109.90 MHz 18 nm / 33 km 277.68° 274.65° - 1,025 ft / 312 m (AMSL)
28 Glidescope IERW 109.90 MHz 10 nm / 19 km 278.25° 275.23° 3.00° 1,035 ft / 315 m (AMSL)

Popular Alternatives